Time;durP1;ratioP1;P1;durP2;ratioP2;P2;SDS_P1;SDS_P2;PMS_P1;PMS_P2;Temp;Humidity;BMP_temperature;BMP_pressure;BME280_temperature;BME280_humidity;BME280_pressure;Samples;Min_cycle;Max_cycle;Signal;HPM_P1;HPM_P2
2023/12/21 00:01:21;;;;;;;2.03;1.83;;;6.20;99.90;;;;;;5053835;28;20493;-83
2023/12/21 00:04:21;;;;;;;1.50;1.50;;;6.20;99.90;;;;;;5067556;28;20437;-81
2023/12/21 00:07:30;;;;;;;3.33;2.43;;;6.20;99.90;;;;;;5058420;28;20461;-81
2023/12/21 00:10:23;;;;;;;1.73;1.63;;;6.20;99.90;;;;;;5053542;28;20519;-79
2023/12/21 00:22:41;;;;;;;1.30;1.30;;;6.30;99.90;;;;;;5057448;28;20441;-80
2023/12/21 00:29:13;;;;;;;1.40;1.40;;;6.30;99.90;;;;;;5062841;28;20489;-82
2023/12/21 00:35:21;;;;;;;1.07;1.00;;;6.20;99.90;;;;;;4998430;28;20448;-84
2023/12/21 00:41:46;;;;;;;1.10;1.10;;;6.00;99.90;;;;;;5039702;28;20490;-81
2023/12/21 00:44:49;;;;;;;1.07;1.07;;;6.30;99.90;;;;;;5046623;28;20454;-81
2023/12/21 00:47:48;;;;;;;;;;;;;;;;;;;;;
2023/12/21 00:54:43;;;;;;;1.23;0.90;;;6.30;99.90;;;;;;5046182;28;20448;-83
2023/12/21 01:04:05;;;;;;;1.10;1.10;;;6.30;99.90;;;;;;5042156;28;20423;-79
2023/12/21 01:09:28;;;;;;;1.00;1.00;;;6.30;99.90;;;;;;5055852;28;20484;-82
2023/12/21 01:11:54;;;;;;;1.07;1.07;;;6.30;99.90;;;;;;5058376;28;20511;-81
2023/12/21 01:14:21;;;;;;;0.90;0.90;;;6.30;99.90;;;;;;5059595;28;20946;-82
2023/12/21 01:16:48;;;;;;;1.50;1.10;;;6.30;99.90;;;;;;5060216;28;20438;-81
2023/12/21 01:19:15;;;;;;;1.20;1.10;;;6.30;99.90;;;;;;5060440;28;21171;-81
2023/12/21 01:21:44;;;;;;;1.77;1.67;;;6.30;99.90;;;;;;5061229;28;20461;-82
2023/12/21 01:24:10;;;;;;;0.87;0.87;;;6.60;99.90;;;;;;5061452;28;20808;-82
2023/12/21 01:26:38;;;;;;;0.90;0.90;;;6.30;99.90;;;;;;5071775;28;20480;-83
2023/12/21 01:29:05;;;;;;;1.40;1.30;;;6.30;99.90;;;;;;5071016;28;20477;-82
2023/12/21 01:31:32;;;;;;;1.10;1.10;;;6.30;99.90;;;;;;5058340;28;20469;-82
2023/12/21 01:33:59;;;;;;;0.90;0.90;;;6.30;99.90;;;;;;5056292;28;20461;-82
2023/12/21 01:36:26;;;;;;;1.13;1.10;;;6.30;99.90;;;;;;5054520;28;20472;-82
2023/12/21 01:38:53;;;;;;;1.00;1.00;;;6.30;99.90;;;;;;5055807;28;20442;-82
2023/12/21 01:41:20;;;;;;;0.87;0.87;;;6.40;99.90;;;;;;5056570;28;20465;-82
2023/12/21 01:43:48;;;;;;;1.30;1.30;;;6.30;99.90;;;;;;5057374;28;20453;-81
2023/12/21 01:46:14;;;;;;;0.90;0.90;;;6.30;99.90;;;;;;5058260;28;20442;-82
2023/12/21 01:48:42;;;;;;;1.23;0.90;;;6.40;99.90;;;;;;5057892;28;20473;-82
2023/12/21 01:51:11;;;;;;;0.90;0.90;;;6.40;99.90;;;;;;5056901;28;20468;-82
2023/12/21 01:53:39;;;;;;;1.00;1.00;;;6.30;99.90;;;;;;5055460;28;20448;-82
2023/12/21 01:56:07;;;;;;;1.37;1.27;;;6.40;99.90;;;;;;5056415;28;20473;-83
2023/12/21 01:58:34;;;;;;;0.90;0.90;;;6.40;99.90;;;;;;5056913;28;20441;-82
2023/12/21 02:01:04;;;;;;;1.20;1.10;;;6.40;99.90;;;;;;5056802;28;20474;-82
2023/12/21 02:03:31;;;;;;;0.90;0.90;;;6.40;99.90;;;;;;5058211;28;20891;-83
2023/12/21 02:05:59;;;;;;;1.00;1.00;;;6.40;99.90;;;;;;5044257;28;20437;-82
2023/12/21 02:08:28;;;;;;;0.90;0.90;;;6.40;99.90;;;;;;5040930;28;20492;-81
2023/12/21 02:10:57;;;;;;;0.70;0.70;;;6.40;99.90;;;;;;5043891;28;20481;-82
2023/12/21 02:13:24;;;;;;;0.80;0.80;;;6.50;99.90;;;;;;5044723;28;20441;-80
2023/12/21 02:15:54;;;;;;;0.83;0.83;;;6.50;99.90;;;;;;5043754;28;20469;-82
2023/12/21 02:18:23;;;;;;;1.43;1.00;;;6.50;99.90;;;;;;5043432;28;20450;-82
2023/12/21 02:20:50;;;;;;;0.70;0.70;;;6.50;99.90;;;;;;5043524;28;20477;-83
2023/12/21 02:23:20;;;;;;;0.90;0.90;;;6.50;99.90;;;;;;5049430;28;20446;-81
2023/12/21 02:25:49;;;;;;;0.90;0.90;;;6.50;99.90;;;;;;5051858;28;20427;-83
2023/12/21 02:28:15;;;;;;;0.70;0.70;;;6.50;99.90;;;;;;5051468;28;20430;-83
2023/12/21 02:30:42;;;;;;;0.73;0.73;;;6.60;99.90;;;;;;5052655;28;20481;-81
2023/12/21 02:33:09;;;;;;;0.83;0.83;;;6.60;99.90;;;;;;5051741;28;20516;-83
2023/12/21 02:35:35;;;;;;;0.80;0.80;;;6.60;99.90;;;;;;5052156;28;20430;-82
2023/12/21 02:38:02;;;;;;;0.80;0.80;;;6.60;99.90;;;;;;5051344;28;20450;-82
2023/12/21 02:40:29;;;;;;;1.73;0.80;;;6.60;99.90;;;;;;5052042;28;20470;-81
2023/12/21 02:42:57;;;;;;;0.80;0.80;;;6.60;99.90;;;;;;5052974;28;20441;-82
2023/12/21 02:45:24;;;;;;;0.90;0.90;;;6.60;99.90;;;;;;5053843;28;20453;-82
2023/12/21 02:47:50;;;;;;;0.73;0.73;;;6.60;99.90;;;;;;5047455;28;20446;-82
2023/12/21 02:50:17;;;;;;;0.70;0.70;;;6.70;99.90;;;;;;5041191;28;20991;-81
2023/12/21 02:52:44;;;;;;;0.80;0.80;;;6.70;99.90;;;;;;5040922;28;20450;-81
2023/12/21 02:55:10;;;;;;;0.90;0.90;;;6.70;99.90;;;;;;5041599;28;20481;-81
2023/12/21 02:57:37;;;;;;;1.13;0.70;;;7.00;99.90;;;;;;5041258;28;20912;-81
2023/12/21 03:00:06;;;;;;;0.87;0.87;;;6.70;99.90;;;;;;5042049;28;20458;-82
2023/12/21 03:02:33;;;;;;;0.60;0.60;;;6.70;99.90;;;;;;5041439;28;20451;-82
2023/12/21 03:05:00;;;;;;;1.07;0.90;;;6.70;99.90;;;;;;5041253;28;20445;-83
2023/12/21 03:07:26;;;;;;;0.63;0.63;;;6.70;99.90;;;;;;5042025;28;20958;-82
2023/12/21 03:09:53;;;;;;;0.80;0.80;;;6.80;99.90;;;;;;5041531;28;20505;-82
2023/12/21 03:12:20;;;;;;;0.90;0.90;;;6.80;99.90;;;;;;5041602;28;20438;-82
2023/12/21 03:14:46;;;;;;;1.73;0.70;;;6.80;99.90;;;;;;5041121;28;20431;-83
2023/12/21 03:17:15;;;;;;;0.80;0.80;;;6.80;99.90;;;;;;5041451;28;20434;-81
2023/12/21 03:19:41;;;;;;;0.60;0.60;;;6.70;99.90;;;;;;5041179;28;20442;-81
2023/12/21 03:22:08;;;;;;;2.23;0.80;;;6.80;99.90;;;;;;5044687;28;20428;-80
2023/12/21 03:24:35;;;;;;;0.60;0.60;;;6.80;99.90;;;;;;5058740;28;20438;-80
2023/12/21 03:27:02;;;;;;;0.70;0.70;;;6.80;99.90;;;;;;5058804;28;20469;-81
2023/12/21 03:29:28;;;;;;;0.70;0.70;;;6.80;99.90;;;;;;5058786;28;20496;-81
2023/12/21 03:31:56;;;;;;;0.60;0.60;;;6.80;99.90;;;;;;5058716;28;20455;-80
2023/12/21 03:34:24;;;;;;;0.90;0.90;;;6.80;99.90;;;;;;5058671;28;20445;-82
2023/12/21 03:36:51;;;;;;;0.83;0.83;;;6.80;99.90;;;;;;5058501;28;20437;-81
2023/12/21 03:39:17;;;;;;;0.70;0.70;;;6.80;99.90;;;;;;5058737;28;20505;-82
2023/12/21 03:41:44;;;;;;;0.80;0.80;;;6.80;99.90;;;;;;5057766;28;20439;-81
2023/12/21 03:44:11;;;;;;;0.83;0.83;;;6.80;99.90;;;;;;5047931;28;20450;-81
2023/12/21 03:46:37;;;;;;;1.17;0.80;;;6.80;99.90;;;;;;5037440;28;20853;-82
2023/12/21 03:49:05;;;;;;;0.60;0.60;;;6.80;99.90;;;;;;5037937;28;20471;-82
2023/12/21 03:51:33;;;;;;;2.20;0.80;;;6.80;99.90;;;;;;5037773;28;20475;-82
2023/12/21 03:53:59;;;;;;;0.87;0.87;;;6.80;99.90;;;;;;5037742;28;20451;-82
2023/12/21 03:56:26;;;;;;;0.97;0.57;;;6.80;99.90;;;;;;5038339;28;20434;-81
2023/12/21 03:58:53;;;;;;;0.80;0.80;;;6.80;99.90;;;;;;5038664;28;20450;-82
2023/12/21 04:01:25;;;;;;;0.80;0.80;;;6.80;99.90;;;;;;5038231;28;20467;-81
2023/12/21 04:03:51;;;;;;;0.80;0.60;;;6.80;99.90;;;;;;5038868;28;20443;-83
2023/12/21 04:06:18;;;;;;;0.70;0.70;;;6.80;99.90;;;;;;5041592;28;20944;-82
2023/12/21 04:08:46;;;;;;;0.60;0.60;;;6.90;99.90;;;;;;5041926;28;20442;-82
2023/12/21 04:11:13;;;;;;;0.70;0.70;;;6.90;99.90;;;;;;5041352;28;20454;-82
2023/12/21 04:13:40;;;;;;;0.70;0.70;;;6.90;99.90;;;;;;5040934;28;20533;-82
2023/12/21 04:16:08;;;;;;;0.80;0.80;;;6.90;99.90;;;;;;5044654;28;20443;-82
2023/12/21 04:18:34;;;;;;;0.70;0.70;;;6.90;99.90;;;;;;5040067;28;20454;-81
2023/12/21 04:21:01;;;;;;;0.70;0.70;;;6.80;99.90;;;;;;5041040;28;20469;-81
2023/12/21 04:23:28;;;;;;;0.80;0.80;;;6.80;99.90;;;;;;5041054;28;20430;-81
2023/12/21 04:25:56;;;;;;;0.77;0.77;;;6.80;99.90;;;;;;5041787;28;20442;-82
2023/12/21 04:28:22;;;;;;;0.73;0.73;;;6.80;99.90;;;;;;5041970;28;20442;-83
2023/12/21 04:30:49;;;;;;;0.70;0.70;;;6.80;99.90;;;;;;5043824;28;20483;-81
2023/12/21 04:33:17;;;;;;;0.77;0.77;;;6.80;99.90;;;;;;5044572;28;20975;-83
2023/12/21 04:35:44;;;;;;;1.13;0.70;;;6.80;99.90;;;;;;5042289;28;20438;-83
2023/12/21 04:38:11;;;;;;;0.70;0.70;;;6.80;99.90;;;;;;5039773;28;20852;-81
2023/12/21 04:40:38;;;;;;;1.00;0.80;;;6.80;99.90;;;;;;5038291;28;20459;-82
2023/12/21 04:43:07;;;;;;;0.60;0.60;;;6.80;99.90;;;;;;5037789;28;20512;-81
2023/12/21 04:45:34;;;;;;;0.70;0.70;;;6.80;99.90;;;;;;5036952;28;20427;-81
2023/12/21 04:48:00;;;;;;;0.70;0.70;;;6.70;99.90;;;;;;5038023;28;20811;-82
2023/12/21 04:50:28;;;;;;;0.70;0.70;;;6.70;99.90;;;;;;5038410;28;20482;-82
2023/12/21 04:52:55;;;;;;;0.80;0.80;;;6.80;99.90;;;;;;5041494;28;20462;-81
2023/12/21 04:55:22;;;;;;;0.80;0.80;;;6.80;99.90;;;;;;5039536;28;20448;-81
2023/12/21 04:57:49;;;;;;;0.60;0.60;;;6.80;99.90;;;;;;5038404;28;20437;-82
2023/12/21 05:00:17;;;;;;;0.77;0.77;;;6.80;99.90;;;;;;5040517;28;20474;-82
2023/12/21 05:02:44;;;;;;;0.70;0.70;;;6.80;99.90;;;;;;5043379;28;20447;-83
2023/12/21 05:05:11;;;;;;;0.80;0.80;;;6.80;99.90;;;;;;5043028;28;20454;-82
2023/12/21 05:07:38;;;;;;;0.73;0.73;;;6.80;99.90;;;;;;5042234;28;20449;-82
2023/12/21 05:10:05;;;;;;;0.80;0.80;;;6.80;99.90;;;;;;5044331;28;20547;-82
2023/12/21 05:12:32;;;;;;;2.23;0.90;;;6.80;99.90;;;;;;5043540;28;20458;-81
2023/12/21 05:14:58;;;;;;;0.80;0.80;;;6.80;99.90;;;;;;5042673;28;20497;-83
2023/12/21 05:17:26;;;;;;;0.80;0.80;;;6.80;99.90;;;;;;5042902;28;20449;-82
2023/12/21 05:19:53;;;;;;;0.73;0.73;;;6.80;99.90;;;;;;5040774;28;20526;-82
2023/12/21 05:22:20;;;;;;;0.80;0.80;;;6.90;99.90;;;;;;5040253;28;20438;-82
2023/12/21 05:24:46;;;;;;;0.70;0.70;;;6.90;99.90;;;;;;5041056;28;20446;-82
2023/12/21 05:27:13;;;;;;;0.70;0.70;;;6.90;99.90;;;;;;5041465;28;20451;-83
2023/12/21 05:29:41;;;;;;;0.70;0.70;;;6.90;99.90;;;;;;5042302;28;20474;-83
2023/12/21 05:32:08;;;;;;;1.43;1.10;;;6.90;99.90;;;;;;5041914;28;20455;-83
2023/12/21 05:34:36;;;;;;;0.50;0.50;;;6.90;99.90;;;;;;5043902;28;20438;-83
2023/12/21 05:37:03;;;;;;;0.70;0.70;;;6.90;99.90;;;;;;5041703;28;20447;-82
2023/12/21 05:39:30;;;;;;;0.90;0.80;;;6.90;99.90;;;;;;5042199;28;20506;-83
2023/12/21 05:41:57;;;;;;;0.90;0.90;;;6.90;99.90;;;;;;5045601;28;20466;-83
2023/12/21 05:44:24;;;;;;;0.90;0.90;;;6.90;99.90;;;;;;5045284;28;20492;-81
2023/12/21 05:46:50;;;;;;;0.73;0.73;;;6.90;99.90;;;;;;5046613;28;20449;-82
2023/12/21 05:49:17;;;;;;;0.80;0.80;;;7.00;99.90;;;;;;5045597;28;20447;-83
2023/12/21 05:51:48;;;;;;;0.80;0.80;;;6.90;99.90;;;;;;5053585;28;20466;-80
2023/12/21 05:54:14;;;;;;;0.80;0.80;;;7.00;99.90;;;;;;5047897;28;20448;-82
2023/12/21 05:56:42;;;;;;;0.67;0.67;;;7.00;99.90;;;;;;5047236;28;20442;-82
2023/12/21 05:59:11;;;;;;;0.70;0.70;;;7.00;99.90;;;;;;5046142;28;20446;-83
2023/12/21 06:01:38;;;;;;;0.90;0.67;;;7.00;99.90;;;;;;5046735;28;20466;-83
2023/12/21 06:04:05;;;;;;;0.97;0.70;;;7.30;99.90;;;;;;5046117;28;20454;-82
2023/12/21 06:06:32;;;;;;;0.80;0.80;;;7.00;99.90;;;;;;5045618;28;20446;-83
2023/12/21 06:09:00;;;;;;;0.63;0.63;;;7.00;99.90;;;;;;5044831;28;20443;-82
2023/12/21 06:11:28;;;;;;;1.83;0.70;;;7.00;99.90;;;;;;5045047;28;20994;-83
2023/12/21 06:13:54;;;;;;;0.70;0.70;;;7.00;99.90;;;;;;5045174;28;20473;-83
2023/12/21 06:16:21;;;;;;;0.90;0.90;;;7.00;99.90;;;;;;5045643;28;20505;-82
2023/12/21 06:18:49;;;;;;;0.70;0.70;;;7.00;99.90;;;;;;5043953;28;20443;-79
2023/12/21 06:21:15;;;;;;;1.40;1.30;;;7.00;99.90;;;;;;5038449;28;20459;-80
2023/12/21 06:23:42;;;;;;;0.87;0.87;;;7.00;99.90;;;;;;5045606;28;20435;-80
2023/12/21 06:26:10;;;;;;;0.77;0.77;;;7.00;99.90;;;;;;5043557;28;20504;-83
2023/12/21 06:28:37;;;;;;;0.70;0.70;;;7.00;99.90;;;;;;5045289;28;20446;-85
2023/12/21 06:31:04;;;;;;;0.93;0.70;;;7.00;99.90;;;;;;5052221;28;20501;-83
2023/12/21 06:33:31;;;;;;;1.23;0.93;;;7.00;99.90;;;;;;5051036;28;20454;-84
2023/12/21 06:35:58;;;;;;;0.67;0.67;;;7.00;99.90;;;;;;5056552;28;20495;-83
2023/12/21 06:38:25;;;;;;;1.20;1.10;;;7.10;99.90;;;;;;5057661;28;20438;-84
2023/12/21 06:40:51;;;;;;;0.77;0.77;;;7.10;99.90;;;;;;5053470;28;20466;-84
2023/12/21 06:43:19;;;;;;;1.63;0.80;;;7.10;99.90;;;;;;5026273;28;20534;-84
2023/12/21 06:45:47;;;;;;;0.77;0.77;;;7.10;99.90;;;;;;5030754;28;20448;-85
2023/12/21 06:48:14;;;;;;;0.70;0.70;;;7.10;99.90;;;;;;5034892;28;20454;-84
2023/12/21 06:50:40;;;;;;;0.73;0.73;;;7.10;99.90;;;;;;5036137;28;20476;-85
2023/12/21 06:53:07;;;;;;;0.80;0.80;;;7.40;99.90;;;;;;5033104;28;21123;-84
2023/12/21 06:55:34;;;;;;;0.70;0.70;;;7.10;99.90;;;;;;5024164;28;20436;-85
2023/12/21 06:58:00;;;;;;;0.70;0.70;;;7.20;99.90;;;;;;5022465;28;20483;-84
2023/12/21 07:00:28;;;;;;;0.80;0.80;;;7.20;99.90;;;;;;5019655;28;20459;-84
2023/12/21 07:02:55;;;;;;;0.70;0.70;;;7.20;99.90;;;;;;5021774;28;20949;-84
2023/12/21 07:05:22;;;;;;;0.80;0.80;;;7.20;99.90;;;;;;5021982;28;20443;-83
2023/12/21 07:07:51;;;;;;;0.70;0.70;;;7.30;99.90;;;;;;5020930;28;20436;-84
2023/12/21 07:10:18;;;;;;;0.80;0.80;;;7.30;99.90;;;;;;5022645;28;20571;-84
2023/12/21 07:12:44;;;;;;;0.90;0.67;;;7.30;99.90;;;;;;5041247;28;20446;-84
2023/12/21 07:15:12;;;;;;;1.03;0.73;;;7.30;99.90;;;;;;5041034;28;20435;-85
2023/12/21 07:17:40;;;;;;;1.00;1.00;;;7.30;99.90;;;;;;5040620;28;20451;-85
2023/12/21 07:20:08;;;;;;;1.00;1.00;;;7.30;99.90;;;;;;5040830;28;20485;-84
2023/12/21 07:22:35;;;;;;;0.70;0.70;;;7.40;99.90;;;;;;5041889;28;20442;-85
2023/12/21 07:25:02;;;;;;;0.60;0.60;;;7.30;99.90;;;;;;5040701;28;20461;-85
2023/12/21 07:27:28;;;;;;;0.73;0.73;;;7.40;99.90;;;;;;5042341;28;20444;-84
2023/12/21 07:29:55;;;;;;;0.60;0.60;;;7.40;99.90;;;;;;5039050;28;20468;-86
2023/12/21 07:32:22;;;;;;;0.73;0.73;;;7.40;99.90;;;;;;5041236;28;20447;-84
2023/12/21 07:34:50;;;;;;;0.80;0.80;;;7.40;99.90;;;;;;5043201;28;20503;-87
2023/12/21 07:37:17;;;;;;;0.90;0.90;;;7.40;99.90;;;;;;5041129;28;20453;-84
2023/12/21 07:39:44;;;;;;;0.70;0.70;;;7.40;99.90;;;;;;5042450;28;20452;-85
2023/12/21 07:42:11;;;;;;;0.80;0.80;;;7.40;99.90;;;;;;5040761;28;20448;-84
2023/12/21 07:44:37;;;;;;;1.17;0.70;;;7.40;99.90;;;;;;5043334;28;20450;-86
2023/12/21 07:47:04;;;;;;;1.00;1.00;;;7.50;99.90;;;;;;5045054;28;20447;-84
2023/12/21 07:49:32;;;;;;;2.20;0.90;;;7.40;99.90;;;;;;5042396;28;20448;-85
2023/12/21 07:52:00;;;;;;;0.80;0.80;;;7.50;99.90;;;;;;5041125;28;20535;-83
2023/12/21 07:54:26;;;;;;;0.90;0.90;;;7.50;99.90;;;;;;5040718;28;20966;-84
2023/12/21 07:56:53;;;;;;;1.10;1.10;;;7.50;99.90;;;;;;5040144;28;20451;-85
2023/12/21 07:59:20;;;;;;;1.10;1.00;;;7.50;99.90;;;;;;5040426;28;20439;-83
2023/12/21 08:01:47;;;;;;;0.80;0.80;;;7.40;99.90;;;;;;5042595;28;20780;-85
2023/12/21 08:04:13;;;;;;;0.80;0.80;;;7.50;99.90;;;;;;5044561;28;20459;-85
2023/12/21 08:06:40;;;;;;;0.60;0.60;;;7.50;99.90;;;;;;5047991;28;20419;-85
2023/12/21 08:09:08;;;;;;;1.30;1.03;;;7.50;99.90;;;;;;5051710;28;20876;-84
2023/12/21 08:11:35;;;;;;;1.00;0.90;;;7.50;99.90;;;;;;5050660;28;20486;-84
2023/12/21 08:14:02;;;;;;;0.60;0.60;;;7.60;99.90;;;;;;5050319;28;20482;-85
2023/12/21 08:16:29;;;;;;;1.10;1.00;;;7.60;99.90;;;;;;5045089;28;20473;-84
2023/12/21 08:18:56;;;;;;;0.93;0.93;;;7.60;99.90;;;;;;5042660;28;20547;-84
2023/12/21 08:21:22;;;;;;;0.70;0.70;;;7.60;99.90;;;;;;5043867;28;20932;-85
2023/12/21 08:23:50;;;;;;;0.67;0.67;;;7.60;99.90;;;;;;5043739;28;20456;-84
2023/12/21 08:26:18;;;;;;;1.60;0.80;;;7.60;99.90;;;;;;5043411;28;20442;-84
2023/12/21 08:28:45;;;;;;;0.70;0.70;;;7.60;99.90;;;;;;5043134;28;20441;-85
2023/12/21 08:31:12;;;;;;;1.37;1.10;;;7.70;99.90;;;;;;5045480;28;20489;-84
2023/12/21 08:33:38;;;;;;;0.80;0.80;;;7.60;99.90;;;;;;5047044;28;20453;-85
2023/12/21 08:36:05;;;;;;;0.70;0.70;;;7.70;99.90;;;;;;5044053;28;20443;-84
2023/12/21 08:38:32;;;;;;;0.80;0.80;;;7.70;99.90;;;;;;5039474;28;20442;-85
2023/12/21 08:41:02;;;;;;;0.93;0.90;;;7.70;99.90;;;;;;5040918;28;20456;-84
2023/12/21 08:43:32;;;;;;;0.90;0.90;;;7.70;99.90;;;;;;5043557;28;20816;-86
2023/12/21 08:45:59;;;;;;;1.30;1.30;;;7.70;99.90;;;;;;5046785;28;20540;-85
2023/12/21 08:48:26;;;;;;;1.97;1.17;;;7.70;99.90;;;;;;5044832;28;20452;-84
2023/12/21 08:50:52;;;;;;;1.77;1.30;;;7.80;99.90;;;;;;5042176;28;20539;-86
2023/12/21 08:53:18;;;;;;;2.13;1.93;;;7.80;99.90;;;;;;5038459;28;20440;-85
2023/12/21 08:55:45;;;;;;;0.70;0.70;;;7.80;99.90;;;;;;5038912;28;20866;-84
2023/12/21 08:58:12;;;;;;;0.70;0.70;;;7.80;99.90;;;;;;5040866;28;20444;-85
2023/12/21 09:00:40;;;;;;;0.80;0.80;;;7.80;99.90;;;;;;5038000;28;20476;-85
2023/12/21 09:03:07;;;;;;;0.60;0.60;;;7.80;99.90;;;;;;5038962;28;20512;-85
2023/12/21 09:05:33;;;;;;;0.83;0.70;;;7.80;99.90;;;;;;5038394;28;20781;-84
2023/12/21 09:08:00;;;;;;;0.70;0.70;;;7.80;99.90;;;;;;5037719;28;20465;-85
2023/12/21 09:10:27;;;;;;;0.70;0.70;;;7.80;99.90;;;;;;5037971;28;20792;-85
2023/12/21 09:12:54;;;;;;;0.77;0.77;;;7.90;99.90;;;;;;5037119;28;20444;-85
2023/12/21 09:15:20;;;;;;;1.00;0.90;;;7.90;99.90;;;;;;5043749;28;20490;-85
2023/12/21 09:17:48;;;;;;;0.70;0.70;;;7.90;99.90;;;;;;5047269;28;20526;-86
2023/12/21 09:20:15;;;;;;;0.80;0.80;;;7.90;99.90;;;;;;5043520;28;20459;-85
2023/12/21 09:22:42;;;;;;;1.23;0.80;;;7.90;99.90;;;;;;5042758;28;20462;-85
2023/12/21 09:25:27;;;;;;;1.00;1.00;;;8.00;99.90;;;;;;5049620;28;20462;-85
2023/12/21 09:28:41;;;;;;;0.73;0.73;;;8.00;99.90;;;;;;5048842;28;20524;-83
2023/12/21 09:31:30;;;;;;;0.70;0.70;;;8.00;99.90;;;;;;5042008;28;20472;-86
2023/12/21 09:34:23;;;;;;;0.97;0.97;;;8.00;99.90;;;;;;5041835;28;20529;-86
2023/12/21 09:37:22;;;;;;;0.70;0.70;;;7.80;99.90;;;;;;5047647;28;20476;-87
2023/12/21 09:40:19;;;;;;;0.77;0.77;;;8.10;99.90;;;;;;5048317;28;20562;-84
2023/12/21 09:46:37;;;;;;;1.80;0.70;;;7.90;99.90;;;;;;5019341;28;20437;-86
2023/12/21 09:49:50;;;;;;;;;;;;;;;;;;;;;
2023/12/21 09:53:00;;;;;;;0.83;0.80;;;8.20;99.90;;;;;;5049931;28;20459;-85
2023/12/21 09:56:13;;;;;;;0.80;0.80;;;8.30;99.90;;;;;;5050829;28;20455;-85
2023/12/21 10:14:22;;;;;;;0.70;0.70;;;8.40;99.90;;;;;;5010755;28;20438;-82
2023/12/21 10:17:09;;;;;;;0.70;0.70;;;8.50;99.90;;;;;;5042945;28;20456;-82
2023/12/21 10:19:57;;;;;;;0.83;0.80;;;8.50;99.90;;;;;;5044341;28;20527;-81
2023/12/21 10:22:53;;;;;;;0.70;0.70;;;8.50;99.90;;;;;;5044766;28;20465;-84
2023/12/21 10:25:44;;;;;;;0.90;0.90;;;8.50;99.90;;;;;;5037982;28;20451;-83
2023/12/21 10:28:24;;;;;;;0.80;0.80;;;8.20;99.90;;;;;;5041870;28;20451;-83
2023/12/21 10:31:03;;;;;;;1.23;0.70;;;8.50;99.90;;;;;;5022453;28;20486;-83
2023/12/21 10:33:56;;;;;;;0.70;0.70;;;8.20;99.90;;;;;;5035561;28;20454;-83
2023/12/21 10:36:33;;;;;;;0.90;0.90;;;8.30;99.90;;;;;;5048674;28;20453;-83
2023/12/21 10:39:18;;;;;;;0.90;0.90;;;8.60;99.90;;;;;;5049726;28;20469;-82
2023/12/21 10:42:01;;;;;;;0.80;0.80;;;8.60;99.90;;;;;;5045732;28;20526;-83
2023/12/21 10:45:03;;;;;;;0.90;0.90;;;8.60;99.90;;;;;;5043688;28;20469;-84
2023/12/21 10:47:44;;;;;;;0.70;0.70;;;8.80;99.90;;;;;;5050091;28;20442;-80
2023/12/21 10:50:20;;;;;;;1.23;0.80;;;8.40;99.90;;;;;;5048622;28;20463;-80
2023/12/21 10:52:54;;;;;;;0.83;0.60;;;8.60;99.90;;;;;;5043523;28;20733;-81
2023/12/21 10:56:03;;;;;;;0.90;0.90;;;8.60;99.90;;;;;;5044213;28;20465;-84
2023/12/21 10:58:34;;;;;;;0.80;0.80;;;8.70;99.90;;;;;;5041948;28;20478;-79
2023/12/21 11:01:24;;;;;;;0.80;0.80;;;8.40;99.90;;;;;;5046361;28;20462;-81
2023/12/21 11:04:21;;;;;;;0.70;0.70;;;8.70;99.90;;;;;;5045839;28;20671;-83
2023/12/21 11:07:01;;;;;;;1.03;0.90;;;8.50;99.90;;;;;;5041767;28;20491;-82
2023/12/21 11:09:49;;;;;;;0.93;0.93;;;9.00;99.90;;;;;;5028200;28;20459;-80
2023/12/21 11:12:22;;;;;;;0.77;0.77;;;8.80;99.90;;;;;;5033810;28;20469;-84
2023/12/21 11:14:54;;;;;;;0.90;0.90;;;8.80;99.90;;;;;;5027870;28;20500;-85
2023/12/21 11:17:40;;;;;;;2.40;0.83;;;8.80;99.90;;;;;;5028901;28;20532;-84
2023/12/21 11:20:26;;;;;;;0.63;0.63;;;8.80;99.90;;;;;;5033335;28;20916;-83
2023/12/21 11:23:11;;;;;;;0.83;0.83;;;8.60;99.90;;;;;;5032004;28;20466;-82
2023/12/21 11:25:43;;;;;;;1.00;0.90;;;8.90;99.90;;;;;;5039029;28;20958;-83
2023/12/21 11:28:44;;;;;;;0.60;0.60;;;8.90;99.90;;;;;;5031561;28;20875;-84
2023/12/21 11:31:39;;;;;;;0.67;0.67;;;8.90;99.90;;;;;;5034830;28;20496;-83
2023/12/21 11:34:39;;;;;;;0.70;0.70;;;8.90;99.90;;;;;;5038090;28;20447;-84
2023/12/21 11:37:36;;;;;;;1.00;1.00;;;9.10;99.90;;;;;;5036623;28;20995;-81
2023/12/21 11:40:16;;;;;;;0.60;0.60;;;8.90;99.90;;;;;;5043847;28;21067;-83
2023/12/21 11:43:08;;;;;;;0.43;0.43;;;8.90;99.90;;;;;;5042762;28;20453;-82
2023/12/21 11:45:54;;;;;;;0.80;0.80;;;8.90;99.90;;;;;;5046742;28;20427;-81
2023/12/21 11:48:27;;;;;;;0.50;0.50;;;9.00;99.90;;;;;;5032430;28;20480;-84
2023/12/21 11:51:15;;;;;;;0.63;0.63;;;8.70;99.90;;;;;;5038457;28;20467;-83
2023/12/21 11:53:56;;;;;;;0.80;0.80;;;9.00;99.90;;;;;;5040122;28;20474;-81
2023/12/21 11:56:52;;;;;;;0.80;0.80;;;9.00;99.90;;;;;;5040720;28;20466;-81
2023/12/21 11:59:53;;;;;;;0.77;0.77;;;9.10;99.90;;;;;;5029664;28;20427;-83
2023/12/21 12:05:49;;;;;;;0.60;0.60;;;9.10;99.90;;;;;;5035771;28;20452;-84
2023/12/21 12:08:56;;;;;;;0.80;0.80;;;9.10;99.90;;;;;;5046940;28;20449;-84
2023/12/21 12:14:46;;;;;;;0.67;0.67;;;9.20;99.90;;;;;;5025866;28;20523;-86
2023/12/21 12:18:26;;;;;;;0.93;0.93;;;9.20;99.90;;;;;;5034028;28;20529;-86
2023/12/21 12:21:25;;;;;;;0.53;0.53;;;9.20;99.90;;;;;;5046555;28;20462;-85
2023/12/21 12:24:43;;;;;;;;;;;;;;;;;;;;;
2023/12/21 12:28:00;;;;;;;;;;;;;;;;;;;;;
2023/12/21 12:30:46;;;;;;;0.67;0.67;;;9.40;99.90;;;;;;5032970;28;20465;-82
2023/12/21 12:33:33;;;;;;;0.80;0.80;;;9.40;99.90;;;;;;5047940;28;20474;-80
2023/12/21 12:36:49;;;;;;;0.60;0.60;;;9.50;99.90;;;;;;5047400;28;20521;-83
2023/12/21 12:39:26;;;;;;;0.50;0.50;;;9.50;99.90;;;;;;5019102;28;20450;-85
2023/12/21 12:42:45;;;;;;;0.60;0.60;;;9.30;99.90;;;;;;5047613;28;20466;-81
2023/12/21 12:45:59;;;;;;;0.67;0.67;;;9.50;99.90;;;;;;5045154;28;20438;-83
2023/12/21 12:49:31;;;;;;;0.67;0.67;;;9.50;99.90;;;;;;5043867;28;20450;-85
2023/12/21 13:01:55;;;;;;;0.60;0.60;;;9.60;99.90;;;;;;5035011;28;20894;-81
2023/12/21 13:05:22;;;;;;;0.90;0.60;;;9.60;99.90;;;;;;5041570;28;20450;-84
2023/12/21 13:08:28;;;;;;;0.60;0.60;;;9.60;99.90;;;;;;5006252;28;20450;-81
2023/12/21 13:18:48;;;;;;;0.63;0.60;;;9.60;99.90;;;;;;4874947;29;20456;-86
2023/12/21 13:32:21;;;;;;;0.70;0.70;;;9.60;99.90;;;;;;5040775;28;20496;-82
2023/12/21 13:38:44;;;;;;;;;;;;;;;;;;;;;
2023/12/21 13:41:37;;;;;;;0.50;0.50;;;9.10;99.90;;;;;;5040048;28;20458;-84
2023/12/21 13:44:13;;;;;;;0.60;0.60;;;9.10;99.90;;;;;;5043971;28;20446;-85
2023/12/21 13:47:18;;;;;;;0.60;0.60;;;9.30;99.90;;;;;;5048760;28;20477;-86
2023/12/21 13:50:10;;;;;;;0.63;0.63;;;9.30;99.90;;;;;;5019535;28;20449;-86
2023/12/21 14:02:49;;;;;;;0.60;0.60;;;9.30;99.90;;;;;;5024123;28;20465;-85
2023/12/21 14:05:26;;;;;;;0.60;0.60;;;9.30;99.90;;;;;;5052318;28;20438;-85
2023/12/21 14:07:59;;;;;;;0.70;0.70;;;9.30;99.90;;;;;;5049799;28;20452;-82
2023/12/21 14:13:49;;;;;;;0.50;0.50;;;9.30;99.90;;;;;;5047273;28;20475;-83
2023/12/21 14:16:31;;;;;;;0.70;0.70;;;9.30;99.90;;;;;;5053887;28;20414;-85
2023/12/21 14:19:09;;;;;;;0.70;0.70;;;9.30;99.90;;;;;;5053412;28;20427;-81
2023/12/21 14:21:40;;;;;;;0.60;0.60;;;9.30;99.90;;;;;;5053085;28;20469;-88
2023/12/21 14:24:24;;;;;;;0.70;0.70;;;9.60;99.90;;;;;;5052173;28;20442;-81
2023/12/21 14:26:56;;;;;;;0.53;0.53;;;9.30;99.90;;;;;;5050478;28;20448;-83
2023/12/21 14:29:46;;;;;;;0.50;0.50;;;9.30;99.90;;;;;;5048144;28;20537;-82
2023/12/21 14:32:27;;;;;;;0.53;0.53;;;9.30;99.90;;;;;;5049960;28;20454;-82
2023/12/21 14:34:58;;;;;;;1.03;0.53;;;9.30;99.90;;;;;;5050405;28;20456;-83
2023/12/21 14:37:35;;;;;;;1.60;1.03;;;9.30;99.90;;;;;;5049849;28;20466;-84
2023/12/21 14:40:16;;;;;;;2.43;2.23;;;9.30;99.90;;;;;;5049233;28;20535;-84
2023/12/21 14:43:18;;;;;;;0.67;0.67;;;9.30;99.90;;;;;;5048076;28;20450;-84
2023/12/21 14:46:00;;;;;;;0.77;0.77;;;9.00;99.90;;;;;;5047882;28;20460;-84
2023/12/21 14:48:38;;;;;;;0.70;0.70;;;9.30;99.90;;;;;;5046852;28;20450;-81
2023/12/21 14:51:18;;;;;;;0.57;0.57;;;9.30;99.90;;;;;;5043721;28;20464;-84
2023/12/21 14:54:06;;;;;;;0.77;0.77;;;9.30;99.90;;;;;;5043723;28;20474;-85
2023/12/21 14:56:53;;;;;;;0.50;0.50;;;9.30;99.90;;;;;;5048401;28;20458;-83
2023/12/21 14:59:44;;;;;;;0.73;0.50;;;9.30;99.90;;;;;;5045618;28;20804;-81
2023/12/21 15:02:20;;;;;;;1.43;1.10;;;9.20;99.90;;;;;;5044372;28;20947;-83
2023/12/21 15:04:53;;;;;;;0.60;0.60;;;9.20;99.90;;;;;;5049011;28;20457;-82
2023/12/21 15:07:38;;;;;;;0.53;0.53;;;9.20;99.90;;;;;;5045361;28;20539;-83
2023/12/21 15:10:12;;;;;;;0.70;0.70;;;9.20;99.90;;;;;;5044372;28;20908;-83
2023/12/21 15:12:46;;;;;;;1.07;0.60;;;9.20;99.90;;;;;;5044668;28;20499;-85
2023/12/21 15:15:20;;;;;;;0.57;0.57;;;9.20;99.90;;;;;;5047404;28;20485;-82
2023/12/21 15:18:21;;;;;;;0.60;0.60;;;9.20;99.90;;;;;;5045098;28;20956;-84
2023/12/21 15:21:03;;;;;;;0.67;0.67;;;9.20;99.90;;;;;;5046265;28;20474;-83
2023/12/21 15:26:37;;;;;;;1.40;0.90;;;9.20;99.90;;;;;;5047263;28;20447;-84
2023/12/21 15:29:21;;;;;;;0.60;0.60;;;9.20;99.90;;;;;;5047460;28;20453;-84
2023/12/21 15:32:14;;;;;;;0.60;0.60;;;9.40;99.90;;;;;;5047007;28;20480;-84